Portada
METAR-TAF:

METAR-TAF

Aeroports :

Dimapur, Índia

latitud: 25-53-02N, longitud: 093-46-16E, altitud: 148 m

Observació

L'informe es va fer fa 1 hora i 21 minuts, a les 07:00 UTC
Vent 2 kt del Sud-Est
Temperatura 26°C
Humitat 48%
Pressió 1013 hPa
Visibilitat: 6000 m
Escasses núvols a una alçada de 2000 ft

METAR: VEMR 030700Z 14002KT 6000 FEW020 26/14 Q1013

Hora: 13:51 (08:21 UTC)

Pronòstic

L'informe es va fer fa 3 hores i 21 minuts, a les 05:00 UTC
Pronòstic vàlid del 03 a les 06 UTC al 03 a les 15 UTC
Vent 7 kt del Sud-Est
Visibilitat: 5000 m
Escasses núvols a una alçada de 2000 ft
calitja
Evolucionant progressivament
l' 03 a les 13 UTC al 03 a les 15 UTC
Vent kt del Nord
Visibilitat: 3000 m
Escasses núvols a una alçada de 2000 ft
Núvols disperses a una alçada de 10000 ft
boirina

TAF: VEMR 030500Z 0306/0315 13007KT 5000 HZ FEW020 BECMG 0313/0315 00000KT 3000 BR FEW020 SCT100

Observacions i pronòstics meteorològics de més de 4000 aeroports (METAR i TAF).

Les estacions disponibles són els punts grocs i vermells al mapa.

Posi el ratolí al punt desitjat per veure el nom de l'estació.

Feu clic per veure les observacions i els pronòstics meteorològics.

Per canviar el mapa: feu clic els botons verds amb una creu de color negre per apropar; al botó verd amb un guió per allunyar la imatge; o en les fletxes verdes per a mapes adjacents.


METAR-TAF: